createdAt,value
2018-11-29T00:02:02.793Z,2.26
2018-11-29T00:04:31.747Z,2.26
2018-11-29T00:06:59.762Z,2.37
2018-11-29T00:09:28.179Z,2.33
2018-11-29T00:11:56.257Z,2.50
2018-11-29T00:14:24.375Z,2.54
2018-11-29T00:16:52.385Z,2.55
2018-11-29T00:19:20.387Z,2.39
2018-11-29T00:21:48.395Z,2.32
2018-11-29T00:24:16.395Z,2.32
2018-11-29T00:26:44.395Z,2.31
2018-11-29T00:29:12.396Z,2.35
2018-11-29T00:31:40.501Z,2.35
2018-11-29T00:34:08.509Z,2.35
2018-11-29T00:36:36.579Z,2.34
2018-11-29T00:39:05.866Z,2.40
2018-11-29T00:41:33.891Z,2.43
2018-11-29T00:44:01.931Z,2.44
2018-11-29T00:46:29.984Z,2.48
2018-11-29T00:48:58.013Z,2.60
2018-11-29T00:51:26.075Z,2.61
2018-11-29T00:53:54.067Z,2.66
2018-11-29T00:56:22.078Z,2.60
2018-11-29T00:58:50.118Z,2.59
2018-11-29T01:01:18.158Z,2.52
2018-11-29T01:03:46.187Z,2.50
2018-11-29T01:06:14.204Z,2.48
2018-11-29T01:08:42.310Z,2.54
2018-11-29T01:11:10.411Z,2.57
2018-11-29T01:13:38.410Z,2.66
2018-11-29T01:16:06.454Z,2.67
2018-11-29T01:18:34.522Z,2.58
2018-11-29T01:21:02.547Z,2.64
2018-11-29T01:23:30.549Z,2.67
2018-11-29T01:25:58.579Z,2.73
2018-11-29T01:28:26.619Z,2.70
2018-11-29T01:30:54.667Z,2.77
2018-11-29T01:33:22.691Z,2.77
2018-11-29T01:35:50.707Z,2.75
2018-11-29T01:38:18.720Z,2.75
2018-11-29T01:40:46.779Z,2.78
2018-11-29T01:43:14.767Z,2.78
2018-11-29T01:45:42.786Z,2.80
2018-11-29T01:48:10.847Z,2.91
2018-11-29T01:50:38.859Z,2.95
2018-11-29T01:53:06.883Z,2.99
2018-11-29T01:55:34.935Z,2.95
2018-11-29T01:58:03.100Z,3.01
2018-11-29T02:00:31.126Z,2.94
2018-11-29T02:02:59.186Z,2.93
2018-11-29T02:05:27.199Z,2.98
2018-11-29T02:07:55.214Z,2.91
2018-11-29T02:10:25.791Z,2.87
2018-11-29T02:12:54.154Z,2.85
2018-11-29T02:15:22.263Z,2.79
2018-11-29T02:17:50.317Z,2.77
2018-11-29T02:20:18.975Z,2.79
2018-11-29T02:22:47.409Z,2.81
2018-11-29T02:25:15.477Z,2.77
2018-11-29T02:27:43.473Z,2.84
2018-11-29T02:30:14.973Z,2.90
2018-11-29T02:32:42.965Z,2.93
2018-11-29T02:35:10.963Z,2.99
2018-11-29T02:37:38.983Z,2.89
2018-11-29T02:40:10.806Z,2.87
2018-11-29T02:42:38.996Z,2.92
2018-11-29T02:45:12.288Z,2.88
2018-11-29T02:47:40.393Z,2.92
2018-11-29T02:50:09.235Z,2.95
2018-11-29T02:52:37.285Z,2.96
2018-11-29T02:55:07.643Z,3.06
2018-11-29T02:57:35.752Z,3.15
2018-11-29T03:00:07.001Z,3.11
2018-11-29T03:02:35.016Z,3.12
2018-11-29T03:05:03.027Z,3.05
2018-11-29T03:07:31.034Z,2.99
2018-11-29T03:09:59.084Z,3.05
2018-11-29T03:12:27.140Z,3.07
2018-11-29T03:14:55.159Z,3.06
2018-11-29T03:17:23.188Z,3.08
2018-11-29T03:19:51.227Z,3.14
2018-11-29T03:22:19.220Z,3.25
2018-11-29T03:24:47.246Z,3.21
2018-11-29T03:27:15.305Z,3.21
2018-11-29T03:29:43.332Z,3.24
2018-11-29T03:32:11.361Z,3.31
2018-11-29T03:34:39.704Z,3.40
2018-11-29T03:37:07.839Z,3.33
2018-11-29T03:39:35.931Z,3.32
2018-11-29T03:42:03.923Z,3.34
2018-11-29T03:44:31.939Z,3.34
2018-11-29T03:46:59.951Z,3.39
2018-11-29T03:49:28.151Z,3.42
2018-11-29T03:51:56.186Z,3.36
2018-11-29T03:54:24.201Z,3.39
2018-11-29T03:56:52.227Z,3.49
2018-11-29T03:59:20.283Z,3.55
2018-11-29T04:01:54.802Z,3.51
2018-11-29T04:04:22.817Z,3.52
2018-11-29T04:06:50.844Z,3.51
2018-11-29T04:09:18.865Z,3.54
2018-11-29T04:11:46.895Z,3.46
2018-11-29T04:14:14.895Z,3.52
2018-11-29T04:16:42.922Z,3.51
2018-11-29T04:19:10.934Z,3.60
2018-11-29T04:21:38.953Z,3.67
2018-11-29T04:24:06.980Z,3.72
2018-11-29T04:26:35.022Z,3.69
2018-11-29T04:29:03.071Z,3.78
2018-11-29T04:31:31.097Z,3.83
2018-11-29T04:33:59.137Z,3.83
2018-11-29T04:36:27.182Z,3.92
2018-11-29T04:38:55.245Z,3.83
2018-11-29T04:41:23.335Z,3.82
2018-11-29T04:43:51.332Z,3.96
2018-11-29T04:46:52.313Z,3.90
2018-11-29T04:49:20.348Z,3.82
2018-11-29T04:51:48.400Z,3.90
2018-11-29T04:54:16.441Z,3.99
2018-11-29T04:56:44.471Z,3.99
2018-11-29T04:59:12.487Z,4.06
2018-11-29T05:01:40.549Z,4.02
2018-11-29T05:04:08.581Z,4.12
2018-11-29T05:06:36.654Z,4.03
2018-11-29T05:09:07.853Z,4.04
2018-11-29T05:11:35.926Z,4.12
2018-11-29T05:14:04.054Z,4.18
2018-11-29T05:16:32.052Z,4.20
2018-11-29T05:19:00.130Z,4.20
2018-11-29T05:21:28.174Z,4.24
2018-11-29T05:23:56.173Z,4.26
2018-11-29T05:26:24.262Z,4.25
2018-11-29T05:28:52.246Z,4.22
2018-11-29T05:31:20.287Z,4.27
2018-11-29T05:33:48.344Z,4.20
2018-11-29T05:36:16.371Z,4.21
2018-11-29T05:38:44.411Z,4.23
2018-11-29T05:41:13.551Z,4.29
2018-11-29T05:43:41.566Z,4.26
2018-11-29T05:46:09.578Z,4.18
2018-11-29T05:48:37.582Z,4.18
2018-11-29T05:51:05.664Z,4.24
2018-11-29T05:53:33.684Z,4.32
2018-11-29T05:56:01.690Z,4.47
2018-11-29T05:58:29.754Z,4.48
2018-11-29T06:01:00.379Z,4.46
2018-11-29T06:03:28.451Z,4.58
2018-11-29T06:05:56.480Z,4.51
2018-11-29T06:08:24.495Z,4.50
2018-11-29T06:10:52.535Z,4.46
2018-11-29T06:13:20.543Z,4.36
2018-11-29T06:15:48.639Z,4.38
2018-11-29T06:18:16.822Z,4.27
2018-11-29T06:20:44.923Z,4.30
2018-11-29T06:23:12.922Z,4.26
2018-11-29T06:25:40.996Z,4.27
2018-11-29T06:28:09.005Z,4.29
2018-11-29T06:30:37.135Z,4.27
2018-11-29T06:33:05.226Z,4.21
2018-11-29T06:35:33.255Z,4.18
2018-11-29T06:38:01.451Z,4.11
2018-11-29T06:40:29.535Z,4.14
2018-11-29T06:42:57.767Z,4.15
2018-11-29T06:45:25.775Z,4.16
2018-11-29T06:47:53.816Z,4.07
2018-11-29T06:50:21.822Z,4.08
2018-11-29T06:52:51.185Z,4.04
2018-11-29T06:55:23.183Z,4.01
2018-11-29T06:57:51.774Z,4.04
2018-11-29T07:00:23.755Z,4.03
2018-11-29T07:02:51.750Z,4.08
2018-11-29T07:05:19.776Z,4.00
2018-11-29T07:07:48.047Z,4.07
2018-11-29T07:10:16.160Z,4.12
2018-11-29T07:12:44.437Z,4.19
2018-11-29T07:15:13.180Z,4.22
2018-11-29T07:17:42.451Z,4.10
2018-11-29T07:20:16.366Z,4.07
2018-11-29T07:22:44.841Z,4.03
2018-11-29T07:25:12.835Z,4.06
2018-11-29T07:27:40.906Z,4.15
2018-11-29T07:30:14.651Z,4.10
2018-11-29T07:32:42.659Z,4.05
2018-11-29T07:35:11.711Z,4.04
2018-11-29T07:37:39.986Z,4.04
2018-11-29T07:40:13.126Z,4.04
2018-11-29T07:42:41.134Z,4.04
2018-11-29T07:45:11.109Z,4.04
2018-11-29T07:47:39.099Z,4.04
2018-11-29T07:50:09.770Z,3.95
2018-11-29T07:52:37.779Z,4.01
2018-11-29T07:55:09.202Z,4.01
2018-11-29T07:57:37.211Z,3.90
2018-11-29T08:00:07.086Z,3.98
2018-11-29T08:02:35.140Z,3.98
2018-11-29T08:05:03.143Z,4.01
2018-11-29T08:07:31.226Z,4.17
2018-11-29T08:09:59.307Z,4.15
2018-11-29T08:12:27.317Z,4.20
2018-11-29T08:14:55.342Z,4.13
2018-11-29T08:17:23.547Z,4.11
2018-11-29T08:19:51.589Z,4.16
2018-11-29T08:22:19.776Z,4.17
2018-11-29T08:24:47.806Z,4.19
2018-11-29T08:27:15.805Z,4.22
2018-11-29T08:29:43.850Z,4.30
2018-11-29T08:32:11.999Z,4.38
2018-11-29T08:34:40.007Z,4.37
2018-11-29T08:37:08.063Z,4.36
2018-11-29T08:39:36.120Z,4.33
2018-11-29T08:42:04.136Z,4.36
2018-11-29T08:44:32.182Z,4.28
2018-11-29T08:47:00.257Z,4.36
2018-11-29T08:49:28.282Z,4.39
2018-11-29T08:51:57.025Z,4.44
2018-11-29T08:54:25.076Z,4.35
2018-11-29T08:56:53.070Z,4.43
2018-11-29T08:59:21.114Z,4.52
2018-11-29T09:01:49.150Z,4.51
2018-11-29T09:04:17.444Z,4.67
2018-11-29T09:06:45.472Z,4.66
2018-11-29T09:09:13.496Z,4.70
2018-11-29T09:11:41.594Z,4.72
2018-11-29T09:14:09.603Z,4.73
2018-11-29T09:16:37.628Z,4.78
2018-11-29T09:19:05.682Z,4.82
2018-11-29T09:21:33.890Z,4.91
2018-11-29T09:24:01.916Z,4.90
2018-11-29T09:26:30.016Z,4.84
2018-11-29T09:28:58.078Z,4.82
2018-11-29T09:31:26.107Z,4.86
2018-11-29T09:33:54.095Z,4.89
2018-11-29T09:36:22.150Z,4.96
2018-11-29T09:38:50.180Z,4.85
2018-11-29T09:41:18.287Z,4.90
2018-11-29T09:43:46.291Z,4.94
2018-11-29T09:46:14.384Z,4.95
2018-11-29T09:48:42.555Z,4.89
2018-11-29T09:51:10.581Z,4.89
2018-11-29T09:53:38.590Z,4.85
2018-11-29T09:56:06.618Z,4.83
2018-11-29T09:58:34.743Z,4.87
2018-11-29T10:01:02.827Z,4.82
2018-11-29T10:03:30.847Z,4.84
2018-11-29T10:05:58.867Z,4.90
2018-11-29T10:08:26.870Z,4.95
2018-11-29T10:10:54.864Z,4.94
2018-11-29T10:13:24.681Z,5.00
2018-11-29T10:15:52.723Z,5.01
2018-11-29T10:18:20.764Z,5.05
2018-11-29T10:20:48.818Z,5.14
2018-11-29T10:23:16.872Z,5.14
2018-11-29T10:25:44.866Z,5.18
2018-11-29T10:28:14.078Z,5.11
2018-11-29T10:30:53.736Z,5.24
2018-11-29T10:33:21.823Z,5.11
2018-11-29T10:35:49.825Z,5.05
2018-11-29T10:38:17.962Z,5.15
2018-11-29T10:40:45.995Z,5.14
2018-11-29T10:43:14.010Z,5.13
2018-11-29T10:45:42.034Z,5.09
2018-11-29T10:48:13.815Z,5.17
2018-11-29T10:50:41.811Z,5.31
2018-11-29T10:53:10.831Z,5.34
2018-11-29T10:55:38.862Z,5.21
2018-11-29T10:58:06.893Z,5.25
2018-11-29T11:00:39.148Z,5.24
2018-11-29T11:03:13.116Z,5.39
2018-11-29T11:05:41.209Z,5.44
2018-11-29T11:08:09.591Z,5.49
2018-11-29T11:10:38.510Z,5.40
2018-11-29T11:13:06.870Z,5.32
2018-11-29T11:15:35.096Z,5.32
2018-11-29T11:18:03.256Z,5.23
2018-11-29T11:20:31.551Z,5.26
2018-11-29T11:22:59.618Z,5.26
2018-11-29T11:25:27.669Z,5.28
2018-11-29T11:27:55.683Z,5.36
2018-11-29T11:30:23.703Z,5.38
2018-11-29T11:32:52.551Z,5.38
2018-11-29T11:35:20.614Z,5.42
2018-11-29T11:37:48.654Z,5.43
2018-11-29T11:40:17.245Z,5.50
2018-11-29T11:42:46.043Z,5.47
2018-11-29T11:45:17.046Z,5.52
2018-11-29T11:47:45.183Z,5.56
2018-11-29T11:50:17.175Z,5.70
2018-11-29T11:52:45.264Z,5.67
2018-11-29T11:55:18.974Z,5.73
2018-11-29T11:57:42.135Z,5.72
2018-11-29T12:00:29.449Z,5.72
2018-11-29T12:03:00.705Z,5.66
2018-11-29T12:05:28.885Z,5.71
2018-11-29T12:07:56.904Z,5.64
2018-11-29T12:10:24.906Z,5.73
2018-11-29T12:12:52.929Z,5.77
2018-11-29T12:15:20.971Z,5.71
2018-11-29T12:17:49.041Z,5.65
2018-11-29T12:20:17.780Z,5.74
2018-11-29T12:22:45.783Z,5.81
2018-11-29T12:25:14.772Z,5.84
2018-11-29T12:27:42.794Z,5.77
2018-11-29T12:30:21.027Z,5.72
2018-11-29T12:32:49.059Z,5.71
2018-11-29T12:35:17.088Z,5.68
2018-11-29T12:37:45.122Z,5.82
2018-11-29T12:40:14.314Z,5.78
2018-11-29T12:42:42.330Z,5.79
2018-11-29T12:45:11.305Z,5.86
2018-11-29T12:47:39.303Z,5.84
2018-11-29T12:50:15.115Z,5.85
2018-11-29T12:52:43.148Z,5.95
2018-11-29T12:55:11.983Z,5.95
2018-11-29T12:57:40.007Z,5.98
2018-11-29T13:00:12.913Z,6.03
2018-11-29T13:02:44.892Z,6.05
2018-11-29T13:05:12.899Z,6.06
2018-11-29T13:07:43.350Z,6.06
2018-11-29T13:10:09.268Z,6.06
2018-11-29T13:12:37.428Z,5.97
2018-11-29T13:15:09.316Z,6.03
2018-11-29T13:17:37.399Z,6.09
2018-11-29T13:20:08.602Z,6.28
2018-11-29T13:22:36.665Z,6.37
2018-11-29T13:25:06.066Z,6.31
2018-11-29T13:27:34.075Z,6.41
2018-11-29T13:30:02.170Z,6.36
2018-11-29T13:32:30.287Z,6.35
2018-11-29T13:34:58.329Z,6.16
2018-11-29T13:37:26.339Z,6.17
2018-11-29T13:39:54.339Z,6.16
2018-11-29T13:42:22.476Z,6.18
2018-11-29T13:44:50.533Z,6.27
2018-11-29T13:47:18.648Z,6.26
2018-11-29T13:49:46.743Z,6.34
2018-11-29T13:52:14.860Z,6.49
2018-11-29T13:54:42.987Z,6.40
2018-11-29T13:57:10.995Z,6.43
2018-11-29T13:59:39.015Z,6.39
2018-11-29T14:02:07.014Z,6.46
2018-11-29T14:04:35.033Z,6.44
2018-11-29T14:07:03.013Z,6.38
2018-11-29T14:09:31.053Z,6.44
2018-11-29T14:11:59.112Z,6.40
2018-11-29T14:14:27.298Z,6.37
2018-11-29T14:16:55.326Z,6.43
2018-11-29T14:19:23.547Z,6.42
2018-11-29T14:21:51.724Z,6.36
2018-11-29T14:24:19.704Z,6.36
2018-11-29T14:26:47.741Z,6.39
2018-11-29T14:29:16.703Z,6.40
2018-11-29T14:31:44.693Z,6.28
2018-11-29T14:34:12.739Z,6.33
2018-11-29T14:36:40.811Z,6.29
2018-11-29T14:39:08.814Z,6.32
2018-11-29T14:41:36.872Z,6.35
2018-11-29T14:44:04.999Z,6.34
2018-11-29T14:46:33.022Z,6.45
2018-11-29T14:49:01.022Z,6.40
2018-11-29T14:51:29.040Z,6.40
2018-11-29T14:53:57.051Z,6.34
2018-11-29T14:56:25.110Z,6.34
2018-11-29T14:58:54.135Z,6.40
2018-11-29T15:01:22.390Z,6.36
2018-11-29T15:03:50.540Z,6.38
2018-11-29T15:06:18.573Z,6.35
2018-11-29T15:08:46.567Z,6.40
2018-11-29T15:11:14.577Z,6.43
2018-11-29T15:13:42.623Z,6.39
2018-11-29T15:16:10.641Z,6.41
2018-11-29T15:18:38.668Z,6.40
2018-11-29T15:21:06.687Z,6.42
2018-11-29T15:23:34.691Z,6.37
2018-11-29T15:26:02.697Z,6.31
2018-11-29T15:28:30.767Z,6.32
2018-11-29T15:30:58.779Z,6.36
2018-11-29T15:33:26.754Z,6.40
2018-11-29T15:35:54.755Z,6.45
2018-11-29T15:38:22.771Z,6.43
2018-11-29T15:40:50.787Z,6.41
2018-11-29T15:43:18.783Z,6.35
2018-11-29T15:45:46.807Z,6.34
2018-11-29T15:48:14.804Z,6.33
2018-11-29T15:50:42.825Z,6.33
2018-11-29T15:53:10.839Z,6.29
2018-11-29T15:55:38.866Z,6.29
2018-11-29T15:58:06.826Z,6.35
2018-11-29T16:00:34.831Z,6.40
2018-11-29T16:03:05.674Z,6.38
2018-11-29T16:05:33.679Z,6.40
2018-11-29T16:08:01.718Z,6.39
2018-11-29T16:10:29.703Z,6.38
2018-11-29T16:12:57.699Z,6.46
2018-11-29T16:15:25.742Z,6.61
2018-11-29T16:17:53.915Z,6.54
2018-11-29T16:20:24.930Z,6.57
2018-11-29T16:22:53.008Z,6.52
2018-11-29T16:25:21.152Z,6.57
2018-11-29T16:27:49.175Z,6.59
2018-11-29T16:30:23.847Z,6.57
2018-11-29T16:32:51.976Z,6.55
2018-11-29T16:35:20.049Z,6.58
2018-11-29T16:37:48.058Z,6.50
2018-11-29T16:40:16.099Z,6.53
2018-11-29T16:42:44.146Z,6.48
2018-11-29T16:45:13.216Z,6.48
2018-11-29T16:47:41.666Z,6.50
2018-11-29T16:50:12.970Z,6.45
2018-11-29T16:52:40.995Z,6.43
2018-11-29T16:55:10.043Z,6.37
2018-11-29T16:57:38.660Z,6.36
2018-11-29T17:00:14.430Z,6.30
2018-11-29T17:02:42.460Z,6.30
2018-11-29T17:05:12.512Z,6.34
2018-11-29T17:07:40.533Z,6.33
2018-11-29T17:10:11.506Z,6.35
2018-11-29T17:12:39.635Z,6.40
2018-11-29T17:15:09.798Z,6.38
2018-11-29T17:17:37.810Z,6.34
2018-11-29T17:20:08.852Z,6.43
2018-11-29T17:22:36.848Z,6.38
2018-11-29T17:25:05.858Z,6.31
2018-11-29T17:27:33.885Z,6.27
2018-11-29T17:30:01.884Z,6.31
2018-11-29T17:32:30.055Z,6.33
2018-11-29T17:34:58.194Z,6.23
2018-11-29T17:37:26.355Z,6.33
2018-11-29T17:39:54.380Z,6.25
2018-11-29T17:42:22.407Z,6.26
2018-11-29T17:44:50.467Z,6.32
2018-11-29T17:47:18.482Z,6.36
2018-11-29T17:49:46.549Z,6.40
2018-11-29T17:52:14.628Z,6.44
2018-11-29T17:54:42.662Z,6.45
2018-11-29T17:57:10.982Z,6.49
2018-11-29T17:59:38.976Z,6.47
2018-11-29T18:02:06.992Z,6.49
2018-11-29T18:04:35.121Z,6.39
2018-11-29T18:07:03.199Z,6.39
2018-11-29T18:09:31.210Z,6.40
2018-11-29T18:11:59.274Z,6.49
2018-11-29T18:14:27.399Z,6.58
2018-11-29T18:16:55.453Z,6.53
2018-11-29T18:19:23.579Z,6.49
2018-11-29T18:21:51.661Z,6.56
2018-11-29T18:24:19.600Z,6.63
2018-11-29T18:26:47.611Z,6.57
2018-11-29T18:29:15.658Z,6.60
2018-11-29T18:31:43.701Z,6.59
2018-11-29T18:34:11.739Z,6.56
2018-11-29T18:36:39.743Z,6.57
2018-11-29T18:39:09.040Z,6.49
2018-11-29T18:41:37.049Z,6.41
2018-11-29T18:44:05.472Z,6.41
2018-11-29T18:46:33.541Z,6.43
2018-11-29T18:49:01.567Z,6.47
2018-11-29T18:51:29.575Z,6.53
2018-11-29T18:53:57.608Z,6.56
2018-11-29T18:56:25.662Z,6.50
2018-11-29T18:58:53.650Z,6.52
2018-11-29T19:01:21.699Z,6.49
2018-11-29T19:03:49.695Z,6.52
2018-11-29T19:06:17.911Z,6.55
2018-11-29T19:08:45.924Z,6.64
2018-11-29T19:11:13.947Z,6.61
2018-11-29T19:13:41.973Z,6.56
2018-11-29T19:16:09.985Z,6.51
2018-11-29T19:18:38.005Z,6.54
2018-11-29T19:21:06.585Z,6.50
2018-11-29T19:23:35.263Z,6.44
2018-11-29T19:26:02.658Z,6.43
2018-11-29T19:28:30.719Z,6.46
2018-11-29T19:30:58.761Z,6.44
2018-11-29T19:33:27.559Z,6.47
2018-11-29T19:35:55.828Z,6.45
2018-11-29T19:38:23.857Z,6.41
2018-11-29T19:40:51.891Z,6.43
2018-11-29T19:43:19.922Z,6.43
2018-11-29T19:45:47.948Z,6.41
2018-11-29T19:48:15.963Z,6.46
2018-11-29T19:50:43.939Z,6.52
2018-11-29T19:53:15.402Z,6.63
2018-11-29T19:55:43.551Z,6.58
2018-11-29T19:58:11.588Z,6.62
2018-11-29T20:00:39.706Z,6.71
2018-11-29T20:03:07.833Z,6.65
2018-11-29T20:05:35.831Z,6.65
2018-11-29T20:08:03.975Z,6.62
2018-11-29T20:10:31.958Z,6.66
2018-11-29T20:13:06.589Z,6.73
2018-11-29T20:15:36.603Z,6.83
2018-11-29T20:18:04.623Z,6.77
2018-11-29T20:20:32.696Z,6.82
2018-11-29T20:23:00.700Z,6.90
2018-11-29T20:25:28.703Z,6.99
2018-11-29T20:27:56.718Z,6.99
2018-11-29T20:30:24.940Z,7.07
2018-11-29T20:32:54.166Z,7.15
2018-11-29T20:35:22.203Z,7.10
2018-11-29T20:37:51.176Z,7.03
2018-11-29T20:40:20.595Z,7.14
2018-11-29T20:42:49.484Z,7.09
2018-11-29T20:45:20.926Z,7.09
2018-11-29T20:47:48.939Z,7.08
2018-11-29T20:50:18.333Z,7.10
2018-11-29T20:52:47.102Z,7.07
2018-11-29T20:55:20.958Z,7.11
2018-11-29T20:57:48.962Z,7.01
2018-11-29T21:00:16.974Z,7.04
2018-11-29T21:02:44.993Z,6.98
2018-11-29T21:05:14.241Z,7.10
2018-11-29T21:07:44.441Z,7.12
2018-11-29T21:10:15.852Z,7.17
2018-11-29T21:12:43.866Z,7.21
2018-11-29T21:15:11.878Z,7.24
2018-11-29T21:17:39.916Z,7.25
2018-11-29T21:20:09.832Z,7.16
2018-11-29T21:22:37.858Z,7.12
2018-11-29T21:25:08.826Z,7.11
2018-11-29T21:27:36.822Z,7.01
2018-11-29T21:30:07.513Z,7.03
2018-11-29T21:32:35.539Z,6.94
2018-11-29T21:35:03.618Z,6.92
2018-11-29T21:37:31.656Z,6.93
2018-11-29T21:39:59.726Z,6.99
2018-11-29T21:42:27.839Z,6.96
2018-11-29T21:44:55.836Z,6.80
2018-11-29T21:47:23.827Z,6.69
2018-11-29T21:49:51.975Z,6.58
2018-11-29T21:52:20.020Z,6.58
2018-11-29T21:54:48.250Z,6.49
2018-11-29T21:57:16.238Z,6.58
2018-11-29T21:59:44.350Z,6.56
2018-11-29T22:02:12.409Z,6.66
2018-11-29T22:04:40.434Z,6.67
2018-11-29T22:07:08.487Z,6.69
2018-11-29T22:09:36.539Z,6.57
2018-11-29T22:12:04.556Z,6.60
2018-11-29T22:14:32.560Z,6.58
2018-11-29T22:17:00.754Z,6.62
2018-11-29T22:19:28.774Z,6.64
2018-11-29T22:21:56.875Z,6.70
2018-11-29T22:24:25.066Z,6.77
2018-11-29T22:26:53.268Z,6.82
2018-11-29T22:29:21.287Z,6.77
2018-11-29T22:31:49.402Z,6.77
2018-11-29T22:34:18.394Z,6.95
2018-11-29T22:36:46.502Z,7.03
2018-11-29T22:39:15.643Z,6.96
2018-11-29T22:41:43.723Z,7.02
2018-11-29T22:44:11.714Z,7.06
2018-11-29T22:46:39.820Z,7.10
2018-11-29T22:49:07.835Z,7.13
2018-11-29T22:51:35.951Z,7.08
2018-11-29T22:54:04.062Z,7.08
2018-11-29T22:56:32.076Z,7.06
2018-11-29T22:59:00.142Z,7.17
2018-11-29T23:01:28.464Z,7.21
2018-11-29T23:03:57.311Z,7.10
2018-11-29T23:06:25.353Z,7.13
2018-11-29T23:08:53.372Z,7.06
2018-11-29T23:11:21.394Z,7.01
2018-11-29T23:13:49.399Z,6.90
2018-11-29T23:16:17.497Z,6.85
2018-11-29T23:18:45.499Z,6.80
2018-11-29T23:21:13.567Z,6.83
2018-11-29T23:23:41.624Z,6.87
2018-11-29T23:26:09.638Z,6.88
2018-11-29T23:28:37.731Z,6.89
2018-11-29T23:31:05.827Z,7.00
2018-11-29T23:33:33.856Z,6.94
2018-11-29T23:36:01.857Z,7.08
2018-11-29T23:38:29.873Z,7.14
2018-11-29T23:40:57.896Z,7.08
2018-11-29T23:43:25.916Z,7.01
2018-11-29T23:45:53.943Z,7.21
2018-11-29T23:48:21.959Z,7.12
2018-11-29T23:50:49.965Z,7.13
2018-11-29T23:53:17.983Z,7.15
2018-11-29T23:55:45.979Z,7.23
2018-11-29T23:58:13.995Z,7.15
